Time;durP1;ratioP1;P1;durP2;ratioP2;P2;SDS_P1;SDS_P2;PMS_P1;PMS_P2;Temp;Humidity;BMP_temperature;BMP_pressure;BME280_temperature;BME280_humidity;BME280_pressure;Samples;Min_cycle;Max_cycle;Signal;HPM_P1;HPM_P2
2020/11/13 00:00:52;;;;;;;2.8;1.7;;;;;;;;;;;;;
2020/11/13 00:03:20;;;;;;;3;1.8;;;;;;;;;;;;;
2020/11/13 00:05:49;;;;;;;6.6;3.2;;;;;;;;;;;;;
2020/11/13 00:08:18;;;;;;;1.5;1.1;;;;;;;;;;;;;
2020/11/13 00:15:28;;;;;;;3.3;1.3;;;;;;;;;;;;;
2020/11/13 00:17:53;;;;;;;1.2;1;;;;;;;;;;;;;
2020/11/13 00:20:18;;;;;;;1.3;1.1;;;;;;;;;;;;;
2020/11/13 00:22:43;;;;;;;1.6;1.1;;;;;;;;;;;;;
2020/11/13 00:25:10;;;;;;;1.3;0.8;;;;;;;;;;;;;
2020/11/13 00:27:35;;;;;;;0.9;0.5;;;;;;;;;;;;;
2020/11/13 00:30:00;;;;;;;1.2;1.1;;;;;;;;;;;;;
2020/11/13 00:32:25;;;;;;;2.9;0.9;;;;;;;;;;;;;
2020/11/13 00:34:51;;;;;;;1.9;1;;;;;;;;;;;;;
2020/11/13 00:37:16;;;;;;;3.3;1.4;;;;;;;;;;;;;
2020/11/13 00:39:42;;;;;;;1.5;0.9;;;;;;;;;;;;;
2020/11/13 00:42:07;;;;;;;1.6;1.1;;;;;;;;;;;;;
2020/11/13 00:44:33;;;;;;;1.8;0.9;;;;;;;;;;;;;
2020/11/13 00:46:58;;;;;;;0.5;0.5;;;;;;;;;;;;;
2020/11/13 00:49:25;;;;;;;1.9;1.1;;;;;;;;;;;;;
2020/11/13 00:51:50;;;;;;;2.5;1;;;;;;;;;;;;;
2020/11/13 00:54:15;;;;;;;0.6;0.6;;;;;;;;;;;;;
2020/11/13 00:56:41;;;;;;;7;1.1;;;;;;;;;;;;;
2020/11/13 00:59:07;;;;;;;1;0.9;;;;;;;;;;;;;
2020/11/13 01:01:32;;;;;;;2.5;0.9;;;;;;;;;;;;;
2020/11/13 01:04:01;;;;;;;4;1.3;;;;;;;;;;;;;
2020/11/13 01:06:26;;;;;;;2.8;1.4;;;;;;;;;;;;;
2020/11/13 01:08:53;;;;;;;3.4;1.1;;;;;;;;;;;;;
2020/11/13 01:11:18;;;;;;;3.1;1.4;;;;;;;;;;;;;
2020/11/13 01:13:45;;;;;;;2.5;1.1;;;;;;;;;;;;;
2020/11/13 01:16:11;;;;;;;2.5;1.7;;;;;;;;;;;;;
2020/11/13 01:18:35;;;;;;;2;1;;;;;;;;;;;;;
2020/11/13 01:21:01;;;;;;;5.1;1.3;;;;;;;;;;;;;
2020/11/13 01:23:26;;;;;;;4;1.5;;;;;;;;;;;;;
2020/11/13 01:25:51;;;;;;;12.6;1.6;;;;;;;;;;;;;
2020/11/13 01:28:17;;;;;;;4.6;1.7;;;;;;;;;;;;;
2020/11/13 01:30:42;;;;;;;3.6;1.7;;;;;;;;;;;;;
2020/11/13 01:33:10;;;;;;;2.3;1.3;;;;;;;;;;;;;
2020/11/13 01:35:35;;;;;;;2.3;1.2;;;;;;;;;;;;;
2020/11/13 01:38:01;;;;;;;2.1;1.4;;;;;;;;;;;;;
2020/11/13 01:40:26;;;;;;;3;1.3;;;;;;;;;;;;;
2020/11/13 01:42:52;;;;;;;3.2;1.3;;;;;;;;;;;;;
2020/11/13 01:45:17;;;;;;;1.9;0.8;;;;;;;;;;;;;
2020/11/13 01:47:42;;;;;;;2.5;1.1;;;;;;;;;;;;;
2020/11/13 01:50:07;;;;;;;2;1.3;;;;;;;;;;;;;
2020/11/13 01:52:34;;;;;;;2.1;1.6;;;;;;;;;;;;;
2020/11/13 01:54:59;;;;;;;3.7;2;;;;;;;;;;;;;
2020/11/13 01:57:24;;;;;;;2.7;1.4;;;;;;;;;;;;;
2020/11/13 01:59:50;;;;;;;2.5;1.1;;;;;;;;;;;;;
2020/11/13 02:02:16;;;;;;;3.1;1.5;;;;;;;;;;;;;
2020/11/13 02:04:42;;;;;;;2.5;1.3;;;;;;;;;;;;;
2020/11/13 02:07:07;;;;;;;3;0.9;;;;;;;;;;;;;
2020/11/13 02:09:34;;;;;;;2.5;1.1;;;;;;;;;;;;;
2020/11/13 02:11:59;;;;;;;2;1.3;;;;;;;;;;;;;
2020/11/13 02:14:25;;;;;;;3.3;1.2;;;;;;;;;;;;;
2020/11/13 02:16:51;;;;;;;1.3;1.1;;;;;;;;;;;;;
2020/11/13 02:19:18;;;;;;;1.2;1.1;;;;;;;;;;;;;
2020/11/13 02:21:43;;;;;;;2.7;1.3;;;;;;;;;;;;;
2020/11/13 02:24:10;;;;;;;2.7;1.1;;;;;;;;;;;;;
2020/11/13 02:26:33;;;;;;;1.6;1.1;;;;;;;;;;;;;
2020/11/13 02:28:59;;;;;;;1.4;1;;;;;;;;;;;;;
2020/11/13 02:31:24;;;;;;;2.1;1.2;;;;;;;;;;;;;
2020/11/13 02:33:51;;;;;;;2.7;1.4;;;;;;;;;;;;;
2020/11/13 02:36:16;;;;;;;1.4;1.1;;;;;;;;;;;;;
2020/11/13 02:38:42;;;;;;;5;1.6;;;;;;;;;;;;;
2020/11/13 02:41:07;;;;;;;6.5;2.5;;;;;;;;;;;;;
2020/11/13 02:43:33;;;;;;;6.8;3.6;;;;;;;;;;;;;
2020/11/13 02:45:58;;;;;;;5.6;2.6;;;;;;;;;;;;;
2020/11/13 02:48:26;;;;;;;2;1.2;;;;;;;;;;;;;
2020/11/13 02:50:51;;;;;;;3;1.6;;;;;;;;;;;;;
2020/11/13 02:53:16;;;;;;;2.6;1.3;;;;;;;;;;;;;
2020/11/13 02:55:41;;;;;;;5.7;1.4;;;;;;;;;;;;;
2020/11/13 02:58:07;;;;;;;1.4;0.8;;;;;;;;;;;;;
2020/11/13 03:00:32;;;;;;;2.1;1.2;;;;;;;;;;;;;
2020/11/13 03:03:00;;;;;;;1;0.9;;;;;;;;;;;;;
2020/11/13 03:05:25;;;;;;;4.3;1.4;;;;;;;;;;;;;
2020/11/13 03:07:50;;;;;;;3.7;1.2;;;;;;;;;;;;;
2020/11/13 03:10:15;;;;;;;1.7;1.2;;;;;;;;;;;;;
2020/11/13 03:12:42;;;;;;;3.2;1.4;;;;;;;;;;;;;
2020/11/13 03:15:07;;;;;;;2.3;1.3;;;;;;;;;;;;;
2020/11/13 03:17:33;;;;;;;7.1;1;;;;;;;;;;;;;
2020/11/13 03:19:58;;;;;;;5.7;1.3;;;;;;;;;;;;;
2020/11/13 03:22:24;;;;;;;2.5;1;;;;;;;;;;;;;
2020/11/13 03:24:49;;;;;;;1.2;0.9;;;;;;;;;;;;;
2020/11/13 03:27:16;;;;;;;1.3;0.8;;;;;;;;;;;;;
2020/11/13 03:29:41;;;;;;;1.4;1.1;;;;;;;;;;;;;
2020/11/13 03:32:07;;;;;;;2.8;1.4;;;;;;;;;;;;;
2020/11/13 03:34:32;;;;;;;0.8;0.8;;;;;;;;;;;;;
2020/11/13 03:36:57;;;;;;;1.7;0.9;;;;;;;;;;;;;
2020/11/13 03:39:24;;;;;;;1.3;1;;;;;;;;;;;;;
2020/11/13 03:41:49;;;;;;;0.9;0.7;;;;;;;;;;;;;
2020/11/13 03:44:15;;;;;;;1.8;1;;;;;;;;;;;;;
2020/11/13 03:46:40;;;;;;;1.5;1.2;;;;;;;;;;;;;
2020/11/13 03:49:06;;;;;;;1.1;0.8;;;;;;;;;;;;;
2020/11/13 03:51:32;;;;;;;3.3;1.9;;;;;;;;;;;;;
2020/11/13 03:53:57;;;;;;;7.1;2.4;;;;;;;;;;;;;
2020/11/13 03:56:24;;;;;;;2.9;1.6;;;;;;;;;;;;;
2020/11/13 03:58:48;;;;;;;1.1;0.8;;;;;;;;;;;;;
2020/11/13 04:02:30;;;;;;;3.8;1.4;;;;;;;3.3;88.56641;943.1867;;;;
2020/11/13 04:05:00;;;;;;;3.3;1.3;;;;;;;3.31;88.55762;943.2029;;;;
2020/11/13 04:07:25;;;;;;;1.7;1.3;;;;;;;3.33;88.62793;943.2132;;;;
2020/11/13 04:09:53;;;;;;;1;0.7;;;;;;;3.44;88.49414;943.234;;;;
2020/11/13 04:12:18;;;;;;;2.1;1.3;;;;;;;3.41;88.74609;943.2304;;;;
2020/11/13 04:14:46;;;;;;;2.3;1.5;;;;;;;3.51;88.40918;943.2467;;;;
2020/11/13 04:17:15;;;;;;;1.3;1.1;;;;;;;3.56;88.10254;943.251;;;;
2020/11/13 04:19:46;;;;;;;1.5;0.9;;;;;;;3.61;87.49609;943.1458;;;;
2020/11/13 04:22:11;;;;;;;2.2;1.3;;;;;;;3.5;87.61914;943.0983;;;;
2020/11/13 04:24:42;;;;;;;1.5;1.2;;;;;;;3.51;87.55371;943.1844;;;;
2020/11/13 04:27:09;;;;;;;2;1.6;;;;;;;3.42;88.09668;943.1047;;;;
2020/11/13 04:29:36;;;;;;;1.6;1.3;;;;;;;3.33;88.87695;943.085;;;;
2020/11/13 04:32:01;;;;;;;1.2;1;;;;;;;3.38;88.61523;943.0798;;;;
2020/11/13 04:34:31;;;;;;;1.1;0.9;;;;;;;3.35;88.86816;943.1125;;;;
2020/11/13 04:37:03;;;;;;;1.5;0.8;;;;;;;3.41;88.51074;943.1384;;;;
2020/11/13 04:39:33;;;;;;;1.5;1.2;;;;;;;3.45;88.49707;943.1163;;;;
2020/11/13 04:42:05;;;;;;;1.1;1;;;;;;;3.41;88.17383;943.0391;;;;
2020/11/13 04:44:33;;;;;;;1.7;1.2;;;;;;;3.19;89.08496;942.9708;;;;
2020/11/13 04:47:00;;;;;;;2.4;1.6;;;;;;;3.2;89.4209;943.0519;;;;
2020/11/13 04:49:31;;;;;;;2.3;1.5;;;;;;;3.19;89.57617;943.0483;;;;
2020/11/13 04:51:56;;;;;;;3.2;2;;;;;;;3.17;89.5957;942.9888;;;;
2020/11/13 04:54:27;;;;;;;7.1;2.4;;;;;;;3.27;88.9541;943.0028;;;;
2020/11/13 04:56:49;;;;;;;1.8;1.4;;;;;;;3.17;89.29004;943.0254;;;;
2020/11/13 04:59:17;;;;;;;3.7;1.3;;;;;;;3.27;89.2666;943.0277;;;;
2020/11/13 05:01:42;;;;;;;1.2;1;;;;;;;3.31;88.96289;942.9897;;;;
2020/11/13 05:04:11;;;;;;;3.5;1.5;;;;;;;3.37;88.46973;942.9528;;;;
2020/11/13 05:06:36;;;;;;;6.2;3.5;;;;;;;3.14;89.53125;942.9321;;;;
2020/11/13 05:09:03;;;;;;;4.1;2.1;;;;;;;3.19;89.54297;942.9305;;;;
2020/11/13 05:11:29;;;;;;;4.7;2.2;;;;;;;3.28;88.97656;942.9448;;;;
2020/11/13 05:13:55;;;;;;;7.4;2.4;;;;;;;3.18;88.7666;942.9253;;;;
2020/11/13 05:16:20;;;;;;;2.3;1.6;;;;;;;2.96;89.31543;942.9727;;;;
2020/11/13 05:18:49;;;;;;;4.1;2.1;;;;;;;2.92;89.39453;942.9863;;;;
2020/11/13 05:21:14;;;;;;;2.3;1.7;;;;;;;2.93;89.21875;943.0238;;;;
2020/11/13 05:23:39;;;;;;;2.8;1.6;;;;;;;2.94;89.32129;942.9708;;;;
2020/11/13 05:26:07;;;;;;;10.8;1.9;;;;;;;2.91;90.45996;942.9052;;;;
2020/11/13 05:28:35;;;;;;;2.9;1.9;;;;;;;2.79;90.5791;942.9442;;;;
2020/11/13 05:31:05;;;;;;;3.3;1.8;;;;;;;2.76;90.90918;942.9073;;;;
2020/11/13 05:33:36;;;;;;;2.6;1.4;;;;;;;2.87;90.96582;942.9392;;;;
2020/11/13 05:36:04;;;;;;;4.6;2;;;;;;;2.87;90.32715;942.9551;;;;
2020/11/13 05:38:29;;;;;;;1.7;1.4;;;;;;;2.93;89.71191;942.9405;;;;
2020/11/13 05:40:55;;;;;;;3.5;1.5;;;;;;;2.97;89.29395;942.9612;;;;
2020/11/13 05:43:21;;;;;;;1.4;0.8;;;;;;;2.93;89.27246;942.9395;;;;
2020/11/13 05:45:52;;;;;;;3;1.3;;;;;;;2.88;89.20898;942.9424;;;;
2020/11/13 05:48:17;;;;;;;1.9;1.3;;;;;;;2.9;89.58301;942.9088;;;;
2020/11/13 05:50:49;;;;;;;3.1;1.1;;;;;;;2.87;90.19238;942.9103;;;;
2020/11/13 05:53:14;;;;;;;1.1;0.8;;;;;;;2.88;90.44238;942.9361;;;;
2020/11/13 05:55:48;;;;;;;3.8;1.8;;;;;;;2.84;90.58984;942.9567;;;;
2020/11/13 05:58:19;;;;;;;3.1;2;;;;;;;2.86;90.71973;942.8699;;;;
2020/11/13 06:00:49;;;;;;;5.9;2;;;;;;;2.97;90.50488;942.9508;;;;
2020/11/13 06:03:14;;;;;;;1.3;0.9;;;;;;;3;90.2207;943.0137;;;;
2020/11/13 06:05:45;;;;;;;1.6;1.5;;;;;;;3.16;89.35742;942.9874;;;;
2020/11/13 06:08:10;;;;;;;2.2;1.3;;;;;;;3.12;89.26953;942.9755;;;;
2020/11/13 06:10:39;;;;;;;9.6;1.7;;;;;;;3.1;89.45703;943.1005;;;;
2020/11/13 06:13:07;;;;;;;2.7;1.3;;;;;;;3.09;89.33105;943.1133;;;;
2020/11/13 06:15:39;;;;;;;5.4;1.7;;;;;;;3.1;89.2207;943.1451;;;;
2020/11/13 06:18:08;;;;;;;6.4;2.6;;;;;;;3.15;88.96289;943.1641;;;;
2020/11/13 06:20:33;;;;;;;10.9;3;;;;;;;3.17;88.4375;943.1418;;;;
2020/11/13 06:22:58;;;;;;;6.8;2.2;;;;;;;3.16;87.76172;943.0927;;;;
2020/11/13 06:25:23;;;;;;;3.3;2.4;;;;;;;3.14;87.62402;943.205;;;;
2020/11/13 06:27:52;;;;;;;4.6;2.5;;;;;;;3.1;87.95313;943.1783;;;;
2020/11/13 06:30:18;;;;;;;11.1;2.6;;;;;;;3.1;88.02051;943.1955;;;;
2020/11/13 06:32:43;;;;;;;5.9;2.7;;;;;;;3.08;88.43164;943.2166;;;;
2020/11/13 06:35:13;;;;;;;4.8;2.2;;;;;;;3.25;88.44336;943.1961;;;;
2020/11/13 06:37:39;;;;;;;8.1;2.7;;;;;;;3.36;87.43457;943.2162;;;;
2020/11/13 06:40:09;;;;;;;8.1;3.4;;;;;;;3.41;86.74707;943.2625;;;;
2020/11/13 06:42:35;;;;;;;3.6;2.1;;;;;;;3.41;86.42188;943.3195;;;;
2020/11/13 06:45:01;;;;;;;10.1;4.6;;;;;;;3.4;86.63379;943.3517;;;;
2020/11/13 06:47:26;;;;;;;6.7;3.7;;;;;;;3.43;86.25684;943.3075;;;;
2020/11/13 06:49:51;;;;;;;7;2.5;;;;;;;3.48;85.95313;943.3466;;;;
2020/11/13 06:52:18;;;;;;;6.5;3;;;;;;;3.46;85.66699;943.3173;;;;
2020/11/13 06:54:43;;;;;;;5.9;3;;;;;;;3.5;85.59766;943.3491;;;;
2020/11/13 06:57:09;;;;;;;2.6;1.7;;;;;;;3.49;86.42676;943.3016;;;;
2020/11/13 06:59:35;;;;;;;6.3;2.3;;;;;;;3.66;85.60645;943.2974;;;;
2020/11/13 07:02:01;;;;;;;8.1;2.8;;;;;;;3.64;85.33496;943.3416;;;;
2020/11/13 07:04:26;;;;;;;9;4.3;;;;;;;3.81;85.35645;943.3917;;;;
2020/11/13 07:06:51;;;;;;;8.1;4.5;;;;;;;3.98;84.53809;943.3572;;;;
2020/11/13 07:09:16;;;;;;;12.5;4.5;;;;;;;;;;;;;
2020/11/13 07:11:41;;;;;;;8;3.6;;;;;;;;;;;;;
2020/11/13 07:14:08;;;;;;;5.8;2.4;;;;;;;;;;;;;
2020/11/13 07:16:33;;;;;;;4.9;2.6;;;;;;;;;;;;;
2020/11/13 07:18:59;;;;;;;4.5;2.7;;;;;;;;;;;;;
2020/11/13 07:21:24;;;;;;;8.2;3.2;;;;;;;;;;;;;
2020/11/13 07:23:50;;;;;;;4.8;2.9;;;;;;;;;;;;;
2020/11/13 07:26:16;;;;;;;6.7;3.1;;;;;;;;;;;;;
2020/11/13 07:28:41;;;;;;;7;2.8;;;;;;;;;;;;;
2020/11/13 07:31:06;;;;;;;9.7;2.6;;;;;;;;;;;;;
2020/11/13 07:33:31;;;;;;;8.7;2.4;;;;;;;;;;;;;
2020/11/13 07:35:59;;;;;;;5.1;2.9;;;;;;;;;;;;;
2020/11/13 07:38:24;;;;;;;3.5;2.8;;;;;;;;;;;;;
2020/11/13 07:40:49;;;;;;;5.6;3.2;;;;;;;;;;;;;
2020/11/13 07:43:16;;;;;;;5;2.7;;;;;;;;;;;;;
2020/11/13 07:45:43;;;;;;;5;1.8;;;;;;;;;;;;;
2020/11/13 07:48:06;;;;;;;3.1;1.9;;;;;;;;;;;;;
2020/11/13 07:50:33;;;;;;;4.4;2.4;;;;;;;;;;;;;
2020/11/13 07:52:58;;;;;;;7.8;2.1;;;;;;;;;;;;;
2020/11/13 07:55:23;;;;;;;4.4;2.1;;;;;;;;;;;;;
2020/11/13 07:57:48;;;;;;;22.2;2;;;;;;;;;;;;;
2020/11/13 08:00:19;;;;;;;3.7;1.4;;;;;;;;;;;;;
2020/11/13 08:02:47;;;;;;;2.5;1.6;;;;;;;;;;;;;
2020/11/13 08:05:13;;;;;;;5.6;1.3;;;;;;;;;;;;;
2020/11/13 08:07:40;;;;;;;1.4;1.1;;;;;;;;;;;;;
2020/11/13 08:10:05;;;;;;;3.1;1.5;;;;;;;;;;;;;
2020/11/13 08:12:31;;;;;;;1.2;0.7;;;;;;;;;;;;;
2020/11/13 08:14:56;;;;;;;1.1;0.9;;;;;;;;;;;;;
2020/11/13 08:17:22;;;;;;;1.4;0.7;;;;;;;;;;;;;
2020/11/13 08:19:47;;;;;;;2.2;0.9;;;;;;;;;;;;;
2020/11/13 08:22:13;;;;;;;4.4;1.3;;;;;;;;;;;;;
2020/11/13 08:24:38;;;;;;;1.6;0.8;;;;;;;;;;;;;
2020/11/13 08:27:04;;;;;;;3.1;1.5;;;;;;;;;;;;;
2020/11/13 08:29:29;;;;;;;1.5;1.2;;;;;;;;;;;;;
2020/11/13 08:31:56;;;;;;;1.3;0.7;;;;;;;;;;;;;
2020/11/13 08:34:21;;;;;;;5.8;1.4;;;;;;;;;;;;;
2020/11/13 08:36:47;;;;;;;1.7;1.2;;;;;;;;;;;;;
2020/11/13 08:39:12;;;;;;;2.4;1.2;;;;;;;;;;;;;
2020/11/13 08:41:38;;;;;;;2.7;0.9;;;;;;;;;;;;;
2020/11/13 08:44:03;;;;;;;1.1;0.8;;;;;;;;;;;;;
2020/11/13 08:46:29;;;;;;;1.8;0.9;;;;;;;;;;;;;
2020/11/13 08:48:55;;;;;;;0.6;0.6;;;;;;;;;;;;;
2020/11/13 08:51:21;;;;;;;1.8;1;;;;;;;;;;;;;
2020/11/13 08:53:45;;;;;;;1.1;0.8;;;;;;;;;;;;;
2020/11/13 08:56:12;;;;;;;2.1;1.1;;;;;;;;;;;;;
2020/11/13 08:58:37;;;;;;;8.5;1;;;;;;;;;;;;;
2020/11/13 09:01:05;;;;;;;1.2;1;;;;;;;;;;;;;
2020/11/13 09:03:29;;;;;;;1.7;1;;;;;;;;;;;;;
2020/11/13 09:05:56;;;;;;;4.1;0.8;;;;;;;;;;;;;
2020/11/13 09:08:20;;;;;;;3;0.9;;;;;;;;;;;;;
2020/11/13 09:10:48;;;;;;;0.5;0.5;;;;;;;;;;;;;
2020/11/13 09:13:13;;;;;;;2.7;1;;;;;;;;;;;;;
2020/11/13 09:15:40;;;;;;;2.2;1.1;;;;;;;;;;;;;
2020/11/13 09:18:05;;;;;;;3.9;0.9;;;;;;;;;;;;;
2020/11/13 09:20:31;;;;;;;4.4;1;;;;;;;;;;;;;
2020/11/13 09:22:56;;;;;;;3.2;1;;;;;;;;;;;;;
2020/11/13 09:25:23;;;;;;;3.6;1.1;;;;;;;;;;;;;
2020/11/13 09:27:49;;;;;;;0.9;0.7;;;;;;;;;;;;;
2020/11/13 09:30:16;;;;;;;3.3;1.1;;;;;;;;;;;;;
2020/11/13 09:32:41;;;;;;;0.7;0.5;;;;;;;;;;;;;
2020/11/13 09:35:08;;;;;;;1.3;0.9;;;;;;;;;;;;;
2020/11/13 09:37:33;;;;;;;0.9;0.6;;;;;;;;;;;;;
2020/11/13 09:39:58;;;;;;;0.9;0.6;;;;;;;;;;;;;
2020/11/13 09:42:23;;;;;;;0.8;0.5;;;;;;;;;;;;;
2020/11/13 09:44:49;;;;;;;2.9;0.6;;;;;;;;;;;;;
2020/11/13 09:47:16;;;;;;;1.8;0.6;;;;;;;;;;;;;
2020/11/13 09:49:41;;;;;;;0.9;0.5;;;;;;;;;;;;;
2020/11/13 09:52:06;;;;;;;1.3;0.5;;;;;;;;;;;;;
2020/11/13 09:54:31;;;;;;;1.3;0.5;;;;;;;;;;;;;
2020/11/13 09:56:56;;;;;;;2.8;1;;;;;;;;;;;;;
2020/11/13 09:59:23;;;;;;;0.7;0.5;;;;;;;;;;;;;
2020/11/13 10:01:48;;;;;;;2.3;0.9;;;;;;;;;;;;;
2020/11/13 10:04:13;;;;;;;1.7;1.1;;;;;;;;;;;;;
2020/11/13 10:06:38;;;;;;;0.8;0.6;;;;;;;;;;;;;
2020/11/13 10:09:03;;;;;;;6.3;3.4;;;;;;;;;;;;;
2020/11/13 10:11:29;;;;;;;2.2;1.2;;;;;;;;;;;;;
2020/11/13 10:13:53;;;;;;;1;0.8;;;;;;;;;;;;;
2020/11/13 10:16:19;;;;;;;1.2;0.7;;;;;;;;;;;;;
2020/11/13 10:18:44;;;;;;;1.9;0.6;;;;;;;;;;;;;
2020/11/13 10:21:10;;;;;;;1.3;0.7;;;;;;;;;;;;;
2020/11/13 10:23:35;;;;;;;0.7;0.5;;;;;;;;;;;;;
2020/11/13 10:26:01;;;;;;;1.2;0.8;;;;;;;;;;;;;
2020/11/13 10:28:26;;;;;;;1.3;0.5;;;;;;;;;;;;;
2020/11/13 10:30:52;;;;;;;1.7;0.8;;;;;;;;;;;;;
2020/11/13 10:33:17;;;;;;;5;0.5;;;;;;;;;;;;;
2020/11/13 10:35:43;;;;;;;1.2;0.8;;;;;;;;;;;;;
2020/11/13 10:38:08;;;;;;;0.7;0.6;;;;;;;;;;;;;
2020/11/13 10:40:38;;;;;;;0.5;0.4;;;;;;;;;;;;;
2020/11/13 10:43:03;;;;;;;2.4;0.7;;;;;;;;;;;;;
2020/11/13 10:45:28;;;;;;;3.8;0.7;;;;;;;;;;;;;
2020/11/13 10:47:55;;;;;;;1.3;0.6;;;;;;;;;;;;;
2020/11/13 10:50:19;;;;;;;1;0.5;;;;;;;;;;;;;
2020/11/13 10:52:44;;;;;;;1;0.8;;;;;;;;;;;;;
2020/11/13 10:55:14;;;;;;;6.3;1.1;;;;;;;;;;;;;
2020/11/13 10:57:39;;;;;;;2.2;0.7;;;;;;;;;;;;;
2020/11/13 11:00:04;;;;;;;0.4;0.4;;;;;;;;;;;;;
2020/11/13 11:02:29;;;;;;;0.7;0.5;;;;;;;;;;;;;
2020/11/13 11:04:55;;;;;;;0.5;0.4;;;;;;;;;;;;;
2020/11/13 11:07:20;;;;;;;0.8;0.5;;;;;;;;;;;;;
2020/11/13 11:09:59;;;;;;;3;0.6;;;;;;;;;;;;;
2020/11/13 11:12:10;;;;;;;2.8;0.5;;;;;;;;;;;;;
2020/11/13 11:14:36;;;;;;;1.8;0.4;;;;;;;;;;;;;
2020/11/13 11:17:01;;;;;;;0.9;0.7;;;;;;;;;;;;;
2020/11/13 11:19:27;;;;;;;0.4;0.3;;;;;;;;;;;;;
2020/11/13 11:21:52;;;;;;;0.5;0.5;;;;;;;;;;;;;
2020/11/13 11:24:18;;;;;;;0.4;0.4;;;;;;;;;;;;;
2020/11/13 11:26:43;;;;;;;0.6;0.3;;;;;;;;;;;;;
2020/11/13 11:29:08;;;;;;;0.7;0.5;;;;;;;;;;;;;
2020/11/13 11:31:34;;;;;;;0.4;0.4;;;;;;;;;;;;;
2020/11/13 11:33:59;;;;;;;0.6;0.3;;;;;;;;;;;;;
2020/11/13 11:36:26;;;;;;;0.1;0.1;;;;;;;;;;;;;
2020/11/13 11:38:51;;;;;;;2.5;0.6;;;;;;;;;;;;;
2020/11/13 11:41:16;;;;;;;8.6;0.7;;;;;;;;;;;;;
2020/11/13 11:43:41;;;;;;;0.3;0.2;;;;;;;;;;;;;
2020/11/13 11:46:07;;;;;;;0.5;0.4;;;;;;;;;;;;;
2020/11/13 11:48:32;;;;;;;1.1;0.5;;;;;;;;;;;;;
2020/11/13 11:50:57;;;;;;;0.2;0.2;;;;;;;;;;;;;
2020/11/13 11:53:24;;;;;;;0.4;0.3;;;;;;;;;;;;;
2020/11/13 11:55:50;;;;;;;0.3;0.2;;;;;;;;;;;;;
2020/11/13 11:58:15;;;;;;;0.7;0.5;;;;;;;;;;;;;
2020/11/13 12:00:41;;;;;;;0.8;0.2;;;;;;;;;;;;;
2020/11/13 12:03:07;;;;;;;1.1;0.3;;;;;;;;;;;;;
2020/11/13 12:05:34;;;;;;;0.3;0.2;;;;;;;;;;;;;
2020/11/13 12:07:59;;;;;;;4;0.5;;;;;;;;;;;;;
2020/11/13 12:10:25;;;;;;;3.7;0.6;;;;;;;;;;;;;
2020/11/13 12:12:55;;;;;;;4.4;0.6;;;;;;;;;;;;;
2020/11/13 12:15:15;;;;;;;0.2;0.1;;;;;;;;;;;;;
2020/11/13 12:17:41;;;;;;;0.2;0.2;;;;;;;;;;;;;
2020/11/13 12:20:06;;;;;;;0.3;0.2;;;;;;;;;;;;;
2020/11/13 12:22:35;;;;;;;0.5;0.3;;;;;;;;;;;;;
2020/11/13 12:25:00;;;;;;;0.3;0.3;;;;;;;;;;;;;
2020/11/13 12:27:25;;;;;;;0.2;0.2;;;;;;;;;;;;;
2020/11/13 12:29:50;;;;;;;0;0;;;;;;;;;;;;;
2020/11/13 12:32:16;;;;;;;0.6;0.4;;;;;;;;;;;;;
2020/11/13 12:34:41;;;;;;;0.6;0.4;;;;;;;;;;;;;
2020/11/13 12:37:06;;;;;;;3.9;0.4;;;;;;;;;;;;;
2020/11/13 12:39:31;;;;;;;0.3;0.2;;;;;;;;;;;;;
2020/11/13 12:44:23;;;;;;;0.2;0.2;;;;;;;;;;;;;
2020/11/13 12:46:48;;;;;;;0.3;0.3;;;;;;;;;;;;;
2020/11/13 12:49:13;;;;;;;0.7;0.2;;;;;;;;;;;;;
2020/11/13 12:51:38;;;;;;;0.1;0.1;;;;;;;;;;;;;
2020/11/13 12:54:03;;;;;;;0.2;0.2;;;;;;;;;;;;;
2020/11/13 12:56:30;;;;;;;0.3;0.2;;;;;;;;;;;;;
2020/11/13 12:58:54;;;;;;;0.3;0.2;;;;;;;;;;;;;
2020/11/13 13:01:19;;;;;;;0.5;0.2;;;;;;;;;;;;;
2020/11/13 13:03:46;;;;;;;0.7;0.2;;;;;;;;;;;;;
2020/11/13 13:06:12;;;;;;;0.4;0.2;;;;;;;;;;;;;
2020/11/13 13:08:36;;;;;;;0.2;0.1;;;;;;;;;;;;;
2020/11/13 13:11:01;;;;;;;0.3;0.3;;;;;;;;;;;;;
2020/11/13 13:13:28;;;;;;;0.7;0.2;;;;;;;;;;;;;
2020/11/13 13:15:52;;;;;;;0.1;0.1;;;;;;;;;;;;;
2020/11/13 13:18:19;;;;;;;0.6;0.4;;;;;;;;;;;;;
2020/11/13 13:20:44;;;;;;;0.4;0.2;;;;;;;;;;;;;
2020/11/13 13:23:10;;;;;;;0.7;0.3;;;;;;;;;;;;;
2020/11/13 13:25:36;;;;;;;0.7;0.3;;;;;;;;;;;;;
2020/11/13 13:28:01;;;;;;;0.8;0.2;;;;;;;;;;;;;
2020/11/13 13:30:26;;;;;;;0.3;0.3;;;;;;;;;;;;;
2020/11/13 13:32:52;;;;;;;0.8;0.3;;;;;;;;;;;;;
2020/11/13 13:35:18;;;;;;;0.2;0.2;;;;;;;;;;;;;
2020/11/13 13:37:45;;;;;;;0.4;0.4;;;;;;;;;;;;;
2020/11/13 13:40:08;;;;;;;0.3;0.3;;;;;;;;;;;;;
2020/11/13 13:42:35;;;;;;;0.5;0.3;;;;;;;;;;;;;
2020/11/13 13:45:00;;;;;;;0.7;0.2;;;;;;;;;;;;;
2020/11/13 13:47:26;;;;;;;0.3;0.2;;;;;;;;;;;;;
2020/11/13 13:50:04;;;;;;;0.4;0.3;;;;;;;;;;;;;
2020/11/13 13:52:17;;;;;;;0.2;0.2;;;;;;;;;;;;;
2020/11/13 13:54:41;;;;;;;0.5;0.3;;;;;;;;;;;;;
2020/11/13 13:57:07;;;;;;;0.2;0.1;;;;;;;;;;;;;
2020/11/13 13:59:32;;;;;;;0.2;0.2;;;;;;;;;;;;;
2020/11/13 14:01:57;;;;;;;1.1;0.3;;;;;;;;;;;;;
2020/11/13 14:04:22;;;;;;;0.3;0.3;;;;;;;;;;;;;
2020/11/13 14:06:47;;;;;;;0.7;0.1;;;;;;;;;;;;;
2020/11/13 14:09:39;;;;;;;0.2;0.2;;;;;;;;;;;;;
2020/11/13 14:11:39;;;;;;;0.5;0.3;;;;;;;;;;;;;
2020/11/13 14:14:05;;;;;;;0.7;0.4;;;;;;;;;;;;;
2020/11/13 14:16:30;;;;;;;0.3;0.2;;;;;;;;;;;;;
2020/11/13 14:18:56;;;;;;;0.7;0.3;;;;;;;;;;;;;
2020/11/13 14:21:21;;;;;;;0.7;0.4;;;;;;;;;;;;;
2020/11/13 14:23:47;;;;;;;1.3;0.5;;;;;;;;;;;;;
2020/11/13 14:26:11;;;;;;;1.9;0.5;;;;;;;;;;;;;
2020/11/13 14:28:37;;;;;;;0.9;0.4;;;;;;;;;;;;;
2020/11/13 14:31:02;;;;;;;1.7;0.7;;;;;;;;;;;;;
2020/11/13 14:33:29;;;;;;;1.7;0.2;;;;;;;;;;;;;
2020/11/13 14:35:56;;;;;;;0.8;0.3;;;;;;;;;;;;;
2020/11/13 14:38:21;;;;;;;0.6;0.4;;;;;;;;;;;;;
2020/11/13 14:40:46;;;;;;;0.6;0.3;;;;;;;;;;;;;
2020/11/13 14:43:11;;;;;;;0.5;0.4;;;;;;;;;;;;;
2020/11/13 14:45:36;;;;;;;2.9;0.6;;;;;;;;;;;;;
2020/11/13 14:48:05;;;;;;;0.2;0.2;;;;;;;;;;;;;
2020/11/13 14:50:28;;;;;;;1.7;0.5;;;;;;;;;;;;;
2020/11/13 14:52:53;;;;;;;3.1;0.7;;;;;;;;;;;;;
2020/11/13 14:55:18;;;;;;;1.4;0.6;;;;;;;;;;;;;
2020/11/13 14:57:44;;;;;;;2;1;;;;;;;;;;;;;
2020/11/13 15:00:09;;;;;;;3.2;1.4;;;;;;;;;;;;;
2020/11/13 15:02:36;;;;;;;4;1.7;;;;;;;;;;;;;
2020/11/13 15:05:01;;;;;;;3.1;0.6;;;;;;;;;;;;;
2020/11/13 15:07:26;;;;;;;1;0.8;;;;;;;;;;;;;
2020/11/13 15:09:52;;;;;;;3.4;0.9;;;;;;;;;;;;;
2020/11/13 15:12:17;;;;;;;8.7;1.6;;;;;;;;;;;;;
2020/11/13 15:14:49;;;;;;;1.2;1;;;;;;;;;;;;;
2020/11/13 15:17:07;;;;;;;0.6;0.6;;;;;;;;;;;;;
2020/11/13 15:19:32;;;;;;;1.5;1.1;;;;;;;;;;;;;
2020/11/13 15:21:57;;;;;;;2.7;1;;;;;;;;;;;;;
2020/11/13 15:24:23;;;;;;;1.3;0.8;;;;;;;;;;;;;
2020/11/13 15:26:49;;;;;;;4;1.3;;;;;;;;;;;;;
2020/11/13 15:29:14;;;;;;;0.7;0.7;;;;;;;;;;;;;
2020/11/13 15:31:40;;;;;;;1.3;0.8;;;;;;;;;;;;;
2020/11/13 15:34:09;;;;;;;1.3;1.1;;;;;;;;;;;;;
2020/11/13 15:36:32;;;;;;;2.7;1.4;;;;;;;;;;;;;
2020/11/13 15:38:59;;;;;;;5.2;1.5;;;;;;;;;;;;;
2020/11/13 15:41:32;;;;;;;1.9;1.2;;;;;;;;;;;;;
2020/11/13 15:43:52;;;;;;;2.7;1.4;;;;;;;;;;;;;
2020/11/13 15:46:19;;;;;;;1.1;0.9;;;;;;;;;;;;;
2020/11/13 15:48:44;;;;;;;1.7;1.2;;;;;;;;;;;;;
2020/11/13 15:51:13;;;;;;;5.2;1.8;;;;;;;;;;;;;
2020/11/13 15:53:39;;;;;;;3.1;1.9;;;;;;;;;;;;;
2020/11/13 15:56:06;;;;;;;3.8;2;;;;;;;;;;;;;
2020/11/13 15:58:31;;;;;;;4.1;1.9;;;;;;;;;;;;;
2020/11/13 16:00:59;;;;;;;3.6;1.9;;;;;;;;;;;;;
2020/11/13 16:03:24;;;;;;;3.8;1.9;;;;;;;;;;;;;
2020/11/13 16:05:52;;;;;;;4.7;2;;;;;;;;;;;;;
2020/11/13 16:08:20;;;;;;;1.8;1.2;;;;;;;;;;;;;
2020/11/13 16:10:45;;;;;;;3.1;1.9;;;;;;;;;;;;;
2020/11/13 16:13:12;;;;;;;5.3;1.8;;;;;;;;;;;;;
2020/11/13 16:15:37;;;;;;;5.8;2.2;;;;;;;;;;;;;
2020/11/13 16:18:03;;;;;;;4.6;2.5;;;;;;;;;;;;;
2020/11/13 16:20:28;;;;;;;8.8;2.3;;;;;;;;;;;;;
2020/11/13 16:22:53;;;;;;;8.1;3.2;;;;;;;;;;;;;
2020/11/13 16:25:18;;;;;;;8.3;4.2;;;;;;;;;;;;;
2020/11/13 16:27:45;;;;;;;6.3;3.1;;;;;;;;;;;;;
2020/11/13 16:30:11;;;;;;;10.2;4.9;;;;;;;;;;;;;
2020/11/13 16:32:36;;;;;;;10.2;4.2;;;;;;;;;;;;;
2020/11/13 16:35:01;;;;;;;10.5;4.8;;;;;;;;;;;;;
2020/11/13 16:37:28;;;;;;;21;5.9;;;;;;;;;;;;;
2020/11/13 16:39:53;;;;;;;17.3;7.2;;;;;;;;;;;;;
2020/11/13 16:42:19;;;;;;;19.2;9.1;;;;;;;;;;;;;
2020/11/13 16:44:44;;;;;;;21.5;7;;;;;;;;;;;;;
2020/11/13 16:47:10;;;;;;;9.5;4.6;;;;;;;;;;;;;
2020/11/13 16:49:35;;;;;;;8.7;3.8;;;;;;;;;;;;;
2020/11/13 16:52:01;;;;;;;10.3;5.6;;;;;;;;;;;;;
2020/11/13 16:54:27;;;;;;;11.8;5.4;;;;;;;;;;;;;
2020/11/13 16:56:52;;;;;;;9.7;5.1;;;;;;;;;;;;;
2020/11/13 16:59:17;;;;;;;12.3;5.4;;;;;;;;;;;;;
2020/11/13 17:01:43;;;;;;;14.6;6.6;;;;;;;;;;;;;
2020/11/13 17:04:08;;;;;;;19.4;8.7;;;;;;;;;;;;;
2020/11/13 17:06:35;;;;;;;14.9;6.6;;;;;;;;;;;;;
2020/11/13 17:09:00;;;;;;;16;6.2;;;;;;;;;;;;;
2020/11/13 17:11:27;;;;;;;16.5;5.4;;;;;;;;;;;;;
2020/11/13 17:13:52;;;;;;;14.3;5.8;;;;;;;;;;;;;
2020/11/13 17:16:18;;;;;;;13.2;5.1;;;;;;;;;;;;;
2020/11/13 17:18:43;;;;;;;16.3;6.3;;;;;;;;;;;;;
2020/11/13 17:21:09;;;;;;;7.8;5.1;;;;;;;;;;;;;
2020/11/13 17:23:33;;;;;;;14.8;5.3;;;;;;;;;;;;;
2020/11/13 17:26:00;;;;;;;12.4;5.3;;;;;;;;;;;;;
2020/11/13 17:28:25;;;;;;;11.6;5.3;;;;;;;;;;;;;
2020/11/13 17:30:53;;;;;;;16.6;6.2;;;;;;;;;;;;;
2020/11/13 17:33:18;;;;;;;14.2;5.1;;;;;;;;;;;;;
2020/11/13 17:35:45;;;;;;;20.4;5.9;;;;;;;;;;;;;
2020/11/13 17:38:10;;;;;;;11.1;4.8;;;;;;;;;;;;;
2020/11/13 17:40:41;;;;;;;11.4;5.3;;;;;;;;;;;;;
2020/11/13 17:43:06;;;;;;;10.9;5.4;;;;;;;;;;;;;
2020/11/13 17:45:32;;;;;;;14.3;6;;;;;;;;;;;;;
2020/11/13 17:47:58;;;;;;;14.3;5.8;;;;;;;;;;;;;
2020/11/13 17:50:23;;;;;;;9;5.1;;;;;;;;;;;;;
2020/11/13 17:52:50;;;;;;;9;4.2;;;;;;;;;;;;;
2020/11/13 17:55:15;;;;;;;5.7;3.4;;;;;;;;;;;;;
2020/11/13 17:57:40;;;;;;;8.3;4.4;;;;;;;;;;;;;
2020/11/13 18:00:06;;;;;;;11.4;5.2;;;;;;;;;;;;;
2020/11/13 18:02:33;;;;;;;11.9;5.8;;;;;;;;;;;;;
2020/11/13 18:04:58;;;;;;;10.6;5.7;;;;;;;;;;;;;
2020/11/13 18:07:24;;;;;;;12.2;5.7;;;;;;;;;;;;;
2020/11/13 18:09:50;;;;;;;10.4;5.1;;;;;;;;;;;;;
2020/11/13 18:12:15;;;;;;;8.3;4.5;;;;;;;;;;;;;
2020/11/13 18:14:40;;;;;;;11.2;5.4;;;;;;;;;;;;;
2020/11/13 18:17:06;;;;;;;7.1;4.2;;;;;;;;;;;;;
2020/11/13 18:19:31;;;;;;;10.8;4.2;;;;;;;;;;;;;
2020/11/13 18:21:57;;;;;;;9.1;4.7;;;;;;;;;;;;;
2020/11/13 18:24:22;;;;;;;11;6.9;;;;;;;;;;;;;
2020/11/13 18:26:48;;;;;;;14.4;8;;;;;;;;;;;;;
2020/11/13 18:29:13;;;;;;;13.6;7.2;;;;;;;;;;;;;
2020/11/13 18:31:42;;;;;;;13.1;5.9;;;;;;;;;;;;;
2020/11/13 18:34:05;;;;;;;14.2;8.5;;;;;;;;;;;;;
2020/11/13 18:36:31;;;;;;;37.6;12.7;;;;;;;;;;;;;
2020/11/13 18:38:56;;;;;;;19.8;8.5;;;;;;;;;;;;;
2020/11/13 18:41:21;;;;;;;21.3;7.1;;;;;;;;;;;;;
2020/11/13 18:43:47;;;;;;;19;10.6;;;;;;;;;;;;;
2020/11/13 18:46:14;;;;;;;26.4;11.5;;;;;;;;;;;;;
2020/11/13 18:48:39;;;;;;;19.1;9.1;;;;;;;;;;;;;
2020/11/13 18:51:05;;;;;;;19.8;9.6;;;;;;;;;;;;;
2020/11/13 18:53:30;;;;;;;14.5;7.1;;;;;;;;;;;;;
2020/11/13 18:55:56;;;;;;;16.3;7.4;;;;;;;;;;;;;
2020/11/13 18:58:23;;;;;;;15;6.8;;;;;;;;;;;;;
2020/11/13 19:00:49;;;;;;;12.6;5.5;;;;;;;;;;;;;
2020/11/13 19:03:13;;;;;;;10;5.6;;;;;;;;;;;;;
2020/11/13 19:05:39;;;;;;;18.2;8.5;;;;;;;;;;;;;
2020/11/13 19:08:04;;;;;;;38.4;11.8;;;;;;;;;;;;;
2020/11/13 19:10:29;;;;;;;11.8;5.4;;;;;;;;;;;;;
2020/11/13 19:12:54;;;;;;;6.7;4.2;;;;;;;;;;;;;
2020/11/13 19:15:20;;;;;;;21.1;8;;;;;;;;;;;;;
2020/11/13 19:17:45;;;;;;;18.5;7.9;;;;;;;;;;;;;
2020/11/13 19:20:12;;;;;;;13.5;6.7;;;;;;;;;;;;;
2020/11/13 19:22:37;;;;;;;15.9;6.6;;;;;;;;;;;;;
2020/11/13 19:25:03;;;;;;;19.7;8.8;;;;;;;;;;;;;